createdAt,value
2023-03-25T00:01:42.886Z,7.80
2023-03-25T00:04:13.153Z,7.72
2023-03-25T00:06:43.528Z,7.75
2023-03-25T00:09:13.932Z,7.63
2023-03-25T00:11:44.339Z,7.22
2023-03-25T00:14:18.537Z,7.88
2023-03-25T00:16:49.972Z,7.75
2023-03-25T00:19:27.231Z,8.02
2023-03-25T00:21:57.606Z,8.68
2023-03-25T00:24:28.038Z,8.10
2023-03-25T00:26:59.030Z,7.40
2023-03-25T00:29:29.378Z,7.68
2023-03-25T00:31:59.998Z,8.32
2023-03-25T00:34:30.467Z,7.45
2023-03-25T00:37:00.750Z,8.20
2023-03-25T00:39:31.886Z,8.00
2023-03-25T00:42:03.530Z,8.55
2023-03-25T00:44:34.198Z,7.60
2023-03-25T00:47:04.816Z,8.35
2023-03-25T00:49:35.250Z,7.50
2023-03-25T00:52:06.068Z,8.98
2023-03-25T00:54:36.501Z,8.18
2023-03-25T00:57:07.123Z,9.07
2023-03-25T00:59:37.737Z,9.07
2023-03-25T01:02:08.535Z,9.50
2023-03-25T01:04:42.812Z,9.15
2023-03-25T01:07:17.614Z,9.40
2023-03-25T01:09:49.406Z,9.85
2023-03-25T01:12:20.652Z,9.80
2023-03-25T01:14:51.042Z,9.68
2023-03-25T01:17:21.701Z,10.45
2023-03-25T01:19:53.191Z,9.68
2023-03-25T01:22:23.578Z,8.85
2023-03-25T01:24:53.797Z,10.10
2023-03-25T01:27:26.029Z,9.40
2023-03-25T01:29:57.227Z,9.30
2023-03-25T01:32:27.865Z,8.68
2023-03-25T01:34:58.344Z,9.25
2023-03-25T01:37:28.808Z,8.77
2023-03-25T01:39:59.228Z,9.32
2023-03-25T01:42:30.261Z,8.88
2023-03-25T01:45:23.933Z,8.95
2023-03-25T01:48:17.124Z,9.32
2023-03-25T01:50:55.013Z,8.95
2023-03-25T01:53:29.278Z,9.30
2023-03-25T01:56:03.929Z,8.98
2023-03-25T01:58:37.447Z,8.98
2023-03-25T02:01:08.691Z,9.20
2023-03-25T02:03:39.794Z,9.13
2023-03-25T02:06:16.518Z,8.85
2023-03-25T02:08:47.272Z,8.93
2023-03-25T02:11:17.716Z,8.68
2023-03-25T02:13:51.351Z,9.57
2023-03-25T02:16:32.576Z,9.07
2023-03-25T02:19:02.962Z,8.60
2023-03-25T02:22:09.041Z,10.38
2023-03-25T02:24:59.377Z,9.00
2023-03-25T02:28:00.800Z,8.95
2023-03-25T02:30:40.005Z,8.25
2023-03-25T02:33:35.052Z,8.77
2023-03-25T02:36:42.944Z,8.85
2023-03-25T02:39:22.702Z,8.77
2023-03-25T02:42:01.415Z,8.88
2023-03-25T02:45:03.761Z,10.00
2023-03-25T02:47:41.745Z,8.98
2023-03-25T02:50:32.524Z,9.85
2023-03-25T02:53:10.340Z,9.45
2023-03-25T02:55:44.409Z,10.88
2023-03-25T03:00:51.056Z,9.68
2023-03-25T03:03:22.425Z,8.65
2023-03-25T03:05:55.753Z,9.93
2023-03-25T03:08:51.537Z,9.80
2023-03-25T03:11:35.279Z,8.82
2023-03-25T03:14:55.313Z,9.30
2023-03-25T03:17:34.402Z,10.32
2023-03-25T03:20:22.349Z,9.45
2023-03-25T03:23:22.582Z,9.60
2023-03-25T03:25:55.837Z,9.90
2023-03-25T03:28:41.106Z,9.90
2023-03-25T03:31:48.870Z,8.60
2023-03-25T03:34:36.065Z,10.45
2023-03-25T03:37:08.505Z,10.00
2023-03-25T03:39:40.607Z,10.43
2023-03-25T03:42:31.974Z,9.63
2023-03-25T03:45:10.806Z,9.45
2023-03-25T03:47:45.709Z,10.27
2023-03-25T03:50:23.253Z,10.23
2023-03-25T03:53:24.671Z,9.88
2023-03-25T03:55:59.636Z,9.38
2023-03-25T03:58:46.007Z,10.07
2023-03-25T04:01:31.884Z,9.73
2023-03-25T04:04:03.898Z,10.18
2023-03-25T04:06:59.830Z,9.63
2023-03-25T04:09:45.622Z,9.48
2023-03-25T04:12:23.172Z,9.55
2023-03-25T04:14:54.483Z,8.98
2023-03-25T04:17:25.799Z,9.23
2023-03-25T04:19:56.992Z,8.57
2023-03-25T04:22:28.487Z,8.30
2023-03-25T04:25:01.806Z,9.43
2023-03-25T04:27:34.277Z,9.88
2023-03-25T04:30:04.700Z,9.88
2023-03-25T04:32:36.352Z,10.10
2023-03-25T04:35:07.091Z,9.75
2023-03-25T04:37:38.680Z,9.18
2023-03-25T04:40:10.778Z,9.98
2023-03-25T04:42:44.347Z,9.10
2023-03-25T04:45:18.200Z,9.98
2023-03-25T04:47:51.288Z,8.77
2023-03-25T04:50:27.599Z,8.85
2023-03-25T04:53:05.032Z,9.32
2023-03-25T04:55:36.183Z,9.23
2023-03-25T04:58:07.336Z,8.23
2023-03-25T05:00:37.740Z,10.13
2023-03-25T05:03:08.194Z,9.27
2023-03-25T05:05:39.006Z,8.98
2023-03-25T05:08:09.627Z,7.90
2023-03-25T05:10:40.446Z,9.48
2023-03-25T05:13:11.905Z,8.52
2023-03-25T05:15:42.599Z,8.43
2023-03-25T05:18:15.801Z,8.60
2023-03-25T05:23:20.487Z,8.27
2023-03-25T05:25:52.894Z,9.35
2023-03-25T05:28:24.357Z,8.90
2023-03-25T05:30:54.939Z,7.88
2023-03-25T05:33:25.297Z,8.95
2023-03-25T05:35:56.199Z,8.68
2023-03-25T05:38:26.607Z,8.90
2023-03-25T05:40:58.059Z,9.30
2023-03-25T05:43:28.400Z,9.05
2023-03-25T05:45:58.919Z,9.23
2023-03-25T05:48:33.815Z,9.55
2023-03-25T05:51:08.294Z,9.30
2023-03-25T05:53:38.984Z,8.43
2023-03-25T05:56:10.589Z,10.60
2023-03-25T05:58:41.214Z,8.98
2023-03-25T06:01:25.834Z,7.40
2023-03-25T06:04:03.817Z,8.90
2023-03-25T06:06:35.485Z,10.10
2023-03-25T06:09:06.000Z,8.70
2023-03-25T06:11:39.555Z,8.65
2023-03-25T06:14:10.761Z,8.85
2023-03-25T06:16:41.260Z,8.90
2023-03-25T06:19:12.075Z,9.55
2023-03-25T06:21:42.357Z,9.63
2023-03-25T06:24:12.776Z,9.35
2023-03-25T06:26:44.217Z,9.25
2023-03-25T06:29:14.625Z,9.02
2023-03-25T06:31:45.109Z,8.80
2023-03-25T06:34:15.565Z,8.48
2023-03-25T06:36:45.946Z,9.65
2023-03-25T06:39:16.320Z,8.65
2023-03-25T06:41:47.649Z,8.13
2023-03-25T06:44:25.105Z,8.60
2023-03-25T06:47:25.690Z,8.77
2023-03-25T06:49:56.341Z,7.10
2023-03-25T06:52:27.298Z,8.43
2023-03-25T06:54:57.960Z,9.07
2023-03-25T06:57:28.363Z,8.10
2023-03-25T06:59:59.171Z,8.00
2023-03-25T07:02:30.176Z,8.75
2023-03-25T07:05:00.681Z,7.68
2023-03-25T07:07:31.114Z,7.28
2023-03-25T07:10:01.836Z,7.20
2023-03-25T07:12:32.417Z,7.72
2023-03-25T07:15:03.462Z,7.78
2023-03-25T07:17:34.998Z,7.07
2023-03-25T07:20:07.772Z,7.68
2023-03-25T07:22:39.228Z,6.70
2023-03-25T07:25:09.825Z,7.40
2023-03-25T07:27:41.192Z,7.78
2023-03-25T07:30:16.896Z,7.25
2023-03-25T07:32:47.903Z,7.53
2023-03-25T07:35:18.459Z,7.13
2023-03-25T07:37:49.060Z,6.60
2023-03-25T07:40:19.661Z,7.05
2023-03-25T07:42:49.890Z,7.47
2023-03-25T07:45:43.842Z,7.20
2023-03-25T07:48:18.320Z,7.10
2023-03-25T07:50:50.885Z,6.93
2023-03-25T07:53:21.880Z,6.97
2023-03-25T07:55:55.335Z,7.28
2023-03-25T07:58:25.710Z,7.40
2023-03-25T08:00:59.627Z,7.50
2023-03-25T08:03:30.674Z,7.57
2023-03-25T08:06:03.980Z,7.43
2023-03-25T08:08:34.474Z,7.13
2023-03-25T08:11:05.555Z,6.78
2023-03-25T08:13:36.126Z,7.13
2023-03-25T08:16:14.184Z,7.47
2023-03-25T08:18:46.503Z,7.65
2023-03-25T08:21:17.592Z,7.65
2023-03-25T08:23:49.268Z,6.70
2023-03-25T08:26:19.951Z,7.28
2023-03-25T08:28:50.327Z,7.78
2023-03-25T08:31:22.274Z,7.50
2023-03-25T08:33:52.981Z,7.85
2023-03-25T08:36:24.688Z,8.57
2023-03-25T08:38:55.317Z,10.20
2023-03-25T08:41:26.434Z,9.95
2023-03-25T08:43:57.310Z,12.00
2023-03-25T08:46:27.649Z,11.15
2023-03-25T08:48:58.338Z,13.73
2023-03-25T08:51:28.657Z,11.40
2023-03-25T08:53:59.385Z,11.93
2023-03-25T08:56:30.385Z,13.68
2023-03-25T08:59:00.797Z,10.90
2023-03-25T09:01:31.277Z,10.93
2023-03-25T09:04:02.062Z,9.57
2023-03-25T09:06:48.092Z,9.82
2023-03-25T09:09:22.722Z,12.23
2023-03-25T09:11:53.106Z,9.55
2023-03-25T09:14:23.476Z,9.85
2023-03-25T09:16:53.858Z,11.05
2023-03-25T09:19:24.415Z,10.93
2023-03-25T09:21:55.320Z,11.70
2023-03-25T09:24:26.362Z,10.32
2023-03-25T09:26:56.906Z,10.77
2023-03-25T09:29:27.261Z,12.52
2023-03-25T09:31:59.901Z,10.88
2023-03-25T09:34:31.139Z,11.20
2023-03-25T09:37:02.699Z,10.23
2023-03-25T09:39:33.128Z,11.35
2023-03-25T09:42:27.355Z,12.38
2023-03-25T09:45:14.953Z,11.68
2023-03-25T09:47:57.217Z,9.35
2023-03-25T09:50:28.448Z,10.63
2023-03-25T09:53:27.496Z,11.23
2023-03-25T09:55:58.037Z,9.95
2023-03-25T09:58:34.435Z,9.50
2023-03-25T10:01:39.805Z,10.50
2023-03-25T10:04:30.796Z,9.85
2023-03-25T10:07:10.436Z,9.48
2023-03-25T10:09:53.252Z,10.23
2023-03-25T10:12:35.457Z,9.90
2023-03-25T10:15:12.274Z,10.77
2023-03-25T10:18:00.625Z,10.60
2023-03-25T10:20:56.043Z,10.60
2023-03-25T10:23:47.739Z,11.63
2023-03-25T10:26:54.968Z,11.18
2023-03-25T10:29:44.083Z,11.15
2023-03-25T10:32:20.436Z,11.57
2023-03-25T10:34:57.617Z,10.73
2023-03-25T10:37:37.185Z,12.07
2023-03-25T10:40:33.517Z,13.27
2023-03-25T10:43:36.285Z,10.00
2023-03-25T10:46:49.902Z,10.20
2023-03-25T10:49:25.464Z,10.13
2023-03-25T10:51:58.944Z,11.05
2023-03-25T10:54:34.858Z,10.30
2023-03-25T10:57:10.944Z,10.85
2023-03-25T11:00:08.054Z,11.00
2023-03-25T11:02:38.438Z,10.88
2023-03-25T11:05:10.931Z,10.90
2023-03-25T11:07:50.262Z,11.45
2023-03-25T11:10:20.613Z,11.13
2023-03-25T11:12:54.040Z,10.18
2023-03-25T11:15:39.978Z,11.13
2023-03-25T11:18:29.914Z,12.18
2023-03-25T11:21:09.519Z,11.20
2023-03-25T11:23:48.702Z,10.80
2023-03-25T11:26:26.436Z,11.65
2023-03-25T11:29:23.889Z,10.50
2023-03-25T11:32:24.849Z,9.93
2023-03-25T11:34:56.215Z,11.00
2023-03-25T11:37:26.740Z,11.23
2023-03-25T11:39:57.852Z,11.35
2023-03-25T11:42:35.416Z,11.50
2023-03-25T11:45:07.253Z,11.32
2023-03-25T11:47:42.858Z,10.82
2023-03-25T11:50:23.220Z,10.20
2023-03-25T11:53:03.212Z,9.95
2023-03-25T11:55:39.797Z,11.40
2023-03-25T11:58:17.929Z,9.95
2023-03-25T12:01:03.060Z,10.50
2023-03-25T12:03:36.763Z,10.63
2023-03-25T12:06:09.316Z,11.13
2023-03-25T12:08:54.968Z,11.13
2023-03-25T12:11:38.182Z,11.13
2023-03-25T12:14:45.908Z,11.48
2023-03-25T12:17:34.550Z,10.18
2023-03-25T12:20:33.746Z,11.38
2023-03-25T12:23:08.491Z,10.68
2023-03-25T12:25:48.938Z,11.85
2023-03-25T12:28:31.450Z,10.93
2023-03-25T12:31:38.212Z,12.10
2023-03-25T12:34:41.870Z,11.18
2023-03-25T12:37:42.648Z,10.75
2023-03-25T12:40:31.378Z,12.15
2023-03-25T12:43:07.936Z,11.02
2023-03-25T12:46:04.531Z,12.07
2023-03-25T12:49:07.483Z,11.48
2023-03-25T12:51:45.842Z,11.27
2023-03-25T12:54:40.983Z,12.00
2023-03-25T12:57:35.434Z,10.82
2023-03-25T13:00:24.657Z,10.40
2023-03-25T13:03:15.982Z,10.82
2023-03-25T13:06:17.911Z,10.43
2023-03-25T13:08:59.933Z,10.60
2023-03-25T13:11:35.590Z,9.57
2023-03-25T13:14:29.920Z,10.02
2023-03-25T13:17:05.144Z,10.15
2023-03-25T13:19:40.819Z,9.85
2023-03-25T13:22:26.259Z,10.13
2023-03-25T13:25:03.428Z,10.02
2023-03-25T13:27:38.335Z,9.10
2023-03-25T13:30:34.160Z,10.02
2023-03-25T13:33:15.331Z,9.57
2023-03-25T13:35:53.766Z,9.60
2023-03-25T13:38:35.492Z,9.82
2023-03-25T13:41:15.531Z,10.07
2023-03-25T13:44:14.696Z,8.82
2023-03-25T13:46:57.379Z,9.60
2023-03-25T13:49:43.830Z,10.02
2023-03-25T13:52:18.391Z,9.77
2023-03-25T13:54:59.361Z,9.23
2023-03-25T13:57:42.437Z,9.05
2023-03-25T14:00:26.234Z,9.77
2023-03-25T14:03:33.552Z,9.77
2023-03-25T14:06:33.008Z,8.93
2023-03-25T14:09:36.951Z,9.02
2023-03-25T14:14:49.648Z,9.18
2023-03-25T14:17:21.427Z,8.77
2023-03-25T14:19:59.782Z,9.38
2023-03-25T14:22:34.161Z,9.13
2023-03-25T14:25:04.982Z,8.57
2023-03-25T14:27:37.676Z,8.18
2023-03-25T14:30:21.795Z,8.73
2023-03-25T14:32:53.497Z,8.13
2023-03-25T14:35:36.208Z,8.35
2023-03-25T14:38:09.721Z,8.20
2023-03-25T14:41:02.135Z,8.52
2023-03-25T14:43:39.782Z,8.65
2023-03-25T14:46:20.732Z,8.77
2023-03-25T14:49:15.472Z,8.30
2023-03-25T14:51:51.943Z,8.38
2023-03-25T14:54:35.176Z,7.90
2023-03-25T14:57:10.273Z,8.32
2023-03-25T14:59:57.537Z,8.00
2023-03-25T15:02:34.572Z,8.90
2023-03-25T15:05:27.114Z,8.48
2023-03-25T15:08:11.129Z,8.55
2023-03-25T15:11:04.332Z,7.88
2023-03-25T15:13:57.939Z,8.35
2023-03-25T15:16:40.425Z,8.77
2023-03-25T15:19:15.040Z,8.63
2023-03-25T15:22:00.703Z,8.18
2023-03-25T15:24:35.007Z,7.97
2023-03-25T15:27:43.760Z,7.95
2023-03-25T15:30:57.466Z,8.32
2023-03-25T15:33:43.516Z,7.97
2023-03-25T15:36:53.781Z,8.35
2023-03-25T15:39:27.424Z,8.52
2023-03-25T15:42:06.550Z,8.43
2023-03-25T15:44:53.107Z,9.10
2023-03-25T15:47:52.697Z,8.30
2023-03-25T15:50:35.772Z,9.05
2023-03-25T15:53:05.989Z,8.43
2023-03-25T15:55:51.956Z,9.55
2023-03-25T15:58:39.777Z,8.35
2023-03-25T16:01:23.199Z,8.80
2023-03-25T16:04:18.904Z,8.55
2023-03-25T16:06:55.423Z,8.60
2023-03-25T16:09:30.272Z,9.43
2023-03-25T16:12:05.711Z,9.18
2023-03-25T16:14:38.142Z,8.75
2023-03-25T16:17:13.354Z,9.60
2023-03-25T16:22:34.265Z,9.18
2023-03-25T16:25:18.701Z,7.70
2023-03-25T16:27:54.265Z,9.48
2023-03-25T16:30:33.026Z,8.80
2023-03-25T16:33:12.737Z,8.27
2023-03-25T16:35:50.570Z,9.35
2023-03-25T16:38:24.235Z,9.25
2023-03-25T16:41:01.717Z,8.75
2023-03-25T16:43:33.068Z,9.20
2023-03-25T16:46:05.865Z,8.43
2023-03-25T16:48:51.322Z,9.38
2023-03-25T16:51:40.666Z,9.63
2023-03-25T16:54:22.338Z,9.23
2023-03-25T16:56:53.908Z,9.13
2023-03-25T16:59:31.953Z,9.40
2023-03-25T17:02:04.346Z,8.63
2023-03-25T17:07:22.240Z,8.43
2023-03-25T17:09:54.689Z,8.70
2023-03-25T17:12:26.303Z,8.95
2023-03-25T17:15:10.752Z,9.13
2023-03-25T17:17:52.596Z,8.40
2023-03-25T17:20:31.711Z,8.80
2023-03-25T17:23:12.208Z,7.85
2023-03-25T17:25:56.450Z,7.72
2023-03-25T17:28:53.057Z,8.57
2023-03-25T17:31:32.047Z,8.48
2023-03-25T17:34:23.835Z,8.27
2023-03-25T17:37:05.534Z,8.10
2023-03-25T17:39:38.127Z,8.68
2023-03-25T17:42:25.149Z,8.30
2023-03-25T17:44:56.233Z,8.93
2023-03-25T17:47:27.672Z,8.38
2023-03-25T17:50:00.450Z,8.50
2023-03-25T17:52:32.560Z,9.88
2023-03-25T17:55:03.529Z,9.63
2023-03-25T17:57:34.714Z,9.18
2023-03-25T18:00:13.657Z,8.98
2023-03-25T18:02:44.193Z,8.90
2023-03-25T18:05:15.275Z,9.18
2023-03-25T18:07:45.824Z,8.48
2023-03-25T18:10:22.739Z,9.02
2023-03-25T18:12:54.050Z,8.73
2023-03-25T18:15:24.626Z,8.00
2023-03-25T18:17:56.958Z,8.43
2023-03-25T18:20:34.143Z,9.43
2023-03-25T18:23:04.907Z,8.00
2023-03-25T18:25:35.683Z,8.85
2023-03-25T18:28:06.104Z,8.15
2023-03-25T18:30:51.047Z,9.50
2023-03-25T18:33:22.040Z,8.93
2023-03-25T18:35:54.029Z,8.13
2023-03-25T18:38:27.155Z,8.32
2023-03-25T18:40:58.906Z,9.02
2023-03-25T18:43:29.474Z,8.73
2023-03-25T18:46:00.231Z,9.38
2023-03-25T18:48:30.589Z,8.25
2023-03-25T18:51:02.351Z,8.98
2023-03-25T18:53:33.659Z,9.63
2023-03-25T18:56:04.336Z,9.40
2023-03-25T18:58:36.511Z,9.25
2023-03-25T19:01:09.109Z,9.70
2023-03-25T19:03:42.478Z,9.63
2023-03-25T19:06:15.501Z,9.18
2023-03-25T19:08:47.649Z,9.60
2023-03-25T19:11:21.628Z,8.80
2023-03-25T19:13:53.988Z,9.88
2023-03-25T19:16:24.590Z,9.85
2023-03-25T19:18:55.060Z,8.98
2023-03-25T19:21:25.443Z,9.20
2023-03-25T19:23:56.004Z,8.52
2023-03-25T19:26:26.709Z,9.05
2023-03-25T19:28:57.087Z,9.75
2023-03-25T19:31:28.151Z,9.57
2023-03-25T19:33:58.745Z,9.98
2023-03-25T19:36:29.342Z,9.55
2023-03-25T19:39:06.917Z,9.85
2023-03-25T19:41:43.591Z,9.40
2023-03-25T19:44:15.933Z,9.38
2023-03-25T19:46:46.501Z,8.88
2023-03-25T19:49:26.063Z,9.02
2023-03-25T19:52:03.845Z,9.63
2023-03-25T19:54:34.093Z,8.90
2023-03-25T19:57:04.462Z,8.55
2023-03-25T19:59:34.888Z,10.30
2023-03-25T20:02:05.568Z,9.77
2023-03-25T20:04:38.146Z,9.23
2023-03-25T20:07:08.512Z,8.90
2023-03-25T20:09:40.770Z,9.05
2023-03-25T20:14:42.360Z,8.48
2023-03-25T20:17:13.642Z,8.93
2023-03-25T20:19:44.063Z,8.85
2023-03-25T20:22:24.274Z,8.73
2023-03-25T20:24:57.072Z,9.23
2023-03-25T20:27:28.217Z,9.20
2023-03-25T20:29:59.082Z,8.60
2023-03-25T20:32:40.042Z,8.88
2023-03-25T20:35:14.474Z,7.90
2023-03-25T20:37:48.408Z,8.20
2023-03-25T20:40:25.372Z,8.95
2023-03-25T20:43:01.531Z,8.77
2023-03-25T20:45:32.138Z,8.20
2023-03-25T20:48:03.095Z,8.90
2023-03-25T20:50:34.000Z,9.10
2023-03-25T20:53:04.468Z,7.57
2023-03-25T20:55:35.543Z,8.00
2023-03-25T20:58:07.349Z,8.48
2023-03-25T21:00:38.218Z,8.13
2023-03-25T21:03:09.218Z,7.97
2023-03-25T21:05:42.461Z,8.07
2023-03-25T21:08:14.942Z,8.23
2023-03-25T21:10:50.130Z,8.35
2023-03-25T21:13:21.310Z,8.70
2023-03-25T21:15:56.246Z,7.10
2023-03-25T21:18:27.210Z,7.75
2023-03-25T21:21:00.095Z,7.38
2023-03-25T21:23:32.351Z,8.18
2023-03-25T21:26:10.703Z,7.60
2023-03-25T21:28:41.320Z,8.23
2023-03-25T21:31:20.320Z,7.60
2023-03-25T21:33:52.656Z,8.32
2023-03-25T21:36:25.834Z,7.50
2023-03-25T21:41:31.495Z,6.75
2023-03-25T21:44:02.216Z,7.07
2023-03-25T21:46:34.956Z,7.57
2023-03-25T21:49:05.468Z,7.57
2023-03-25T21:51:37.452Z,7.70
2023-03-25T21:54:07.966Z,7.20
2023-03-25T21:56:41.406Z,7.65
2023-03-25T21:59:13.413Z,6.88
2023-03-25T22:01:44.721Z,7.65
2023-03-25T22:04:15.257Z,7.25
2023-03-25T22:06:45.816Z,6.95
2023-03-25T22:09:16.891Z,7.18
2023-03-25T22:11:47.366Z,7.10
2023-03-25T22:14:17.854Z,7.07
2023-03-25T22:16:48.969Z,6.68
2023-03-25T22:19:19.556Z,7.70
2023-03-25T22:21:50.711Z,6.68
2023-03-25T22:24:21.137Z,7.15
2023-03-25T22:26:51.665Z,6.82
2023-03-25T22:29:22.387Z,7.00
2023-03-25T22:31:57.124Z,7.30
2023-03-25T22:34:30.214Z,6.53
2023-03-25T22:37:00.692Z,6.85
2023-03-25T22:39:31.270Z,6.63
2023-03-25T22:42:01.912Z,6.88
2023-03-25T22:44:32.477Z,6.47
2023-03-25T22:47:04.717Z,6.95
2023-03-25T22:49:35.112Z,6.78
2023-03-25T22:52:06.356Z,7.13
2023-03-25T22:54:38.046Z,6.60
2023-03-25T22:57:08.391Z,6.75
2023-03-25T22:59:40.620Z,6.70
2023-03-25T23:02:13.684Z,6.45
2023-03-25T23:04:44.492Z,6.93
2023-03-25T23:07:15.334Z,6.80
2023-03-25T23:09:46.563Z,6.22
2023-03-25T23:12:22.457Z,6.05
2023-03-25T23:14:57.000Z,6.38
2023-03-25T23:17:28.662Z,7.18
2023-03-25T23:19:59.884Z,6.82
2023-03-25T23:22:30.367Z,6.50
2023-03-25T23:25:00.780Z,6.45
2023-03-25T23:27:32.185Z,5.88
2023-03-25T23:30:04.564Z,6.45
2023-03-25T23:32:37.030Z,6.70
2023-03-25T23:35:08.059Z,6.60
2023-03-25T23:37:38.615Z,6.68
2023-03-25T23:40:10.022Z,7.70
2023-03-25T23:42:41.066Z,5.82
2023-03-25T23:45:12.310Z,6.32
2023-03-25T23:47:42.834Z,6.57
2023-03-25T23:50:19.431Z,6.32
2023-03-25T23:52:49.789Z,6.25
2023-03-25T23:55:22.140Z,6.47
2023-03-25T23:57:52.676Z,6.28
